Time;durP1;ratioP1;P1;durP2;ratioP2;P2;SDS_P1;SDS_P2;PMS_P1;PMS_P2;Temp;Humidity;BMP_temperature;BMP_pressure;BME280_temperature;BME280_humidity;BME280_pressure;Samples;Min_cycle;Max_cycle;Signal;HPM_P1;HPM_P2
2023/10/31 00:01:55;;;;;;;0.30;0.30;;;10.80;99.90;;;10.39;100.00;95688.00;5042711;28;20040;-40
2023/10/31 00:04:21;;;;;;;0.25;0.20;;;10.80;99.90;;;10.31;100.00;95681.44;5041140;28;20029;-39
2023/10/31 00:06:46;;;;;;;2.25;0.45;;;10.80;99.90;;;10.36;100.00;95689.06;5041965;28;20029;-39
2023/10/31 00:09:12;;;;;;;2.85;0.40;;;10.80;99.90;;;10.36;100.00;95704.88;5036503;28;20029;-41
2023/10/31 00:11:38;;;;;;;0.60;0.38;;;10.80;99.90;;;10.35;100.00;95700.53;5039736;28;20493;-39
2023/10/31 00:14:04;;;;;;;4.70;0.43;;;10.80;99.90;;;10.30;100.00;95707.84;5035445;28;20044;-39
2023/10/31 00:16:29;;;;;;;0.25;0.20;;;10.80;99.90;;;10.34;100.00;95730.47;5044020;28;20047;-41
2023/10/31 00:18:55;;;;;;;0.70;0.40;;;10.80;99.90;;;10.34;100.00;95732.22;5039563;28;20058;-39
2023/10/31 00:21:21;;;;;;;5.72;1.33;;;10.80;99.90;;;10.31;100.00;95733.28;5030835;28;20459;-40
2023/10/31 00:23:48;;;;;;;0.73;0.40;;;10.80;99.90;;;10.34;100.00;95730.47;5031730;28;20525;-41
2023/10/31 00:26:15;;;;;;;2.53;0.47;;;10.80;99.90;;;10.24;100.00;95718.78;5021919;28;20029;-40
2023/10/31 00:28:41;;;;;;;0.30;0.30;;;10.80;99.90;;;10.27;100.00;95724.69;5027292;28;20025;-40
2023/10/31 00:31:08;;;;;;;0.98;0.30;;;10.80;99.90;;;10.23;100.00;95723.19;5030859;28;20036;-39
2023/10/31 00:33:34;;;;;;;0.52;0.30;;;10.70;99.90;;;10.17;100.00;95717.47;5034868;28;20013;-39
2023/10/31 00:36:01;;;;;;;1.38;0.30;;;10.70;99.90;;;10.27;100.00;95735.22;5034601;28;20025;-40
2023/10/31 00:38:28;;;;;;;0.50;0.40;;;10.70;99.90;;;10.22;100.00;95739.94;5035988;28;20040;-39
2023/10/31 00:40:53;;;;;;;0.20;0.20;;;10.70;99.90;;;10.22;100.00;95747.00;5038086;28;20083;-39
2023/10/31 00:43:19;;;;;;;0.75;0.50;;;10.70;99.90;;;10.20;100.00;95755.00;5038000;28;20572;-40
2023/10/31 00:45:45;;;;;;;1.77;0.30;;;10.70;99.90;;;10.20;100.00;95751.53;5031894;28;20464;-41
2023/10/31 00:48:10;;;;;;;1.85;0.30;;;10.60;99.90;;;10.17;100.00;95746.44;5033128;28;20124;-39
2023/10/31 00:50:36;;;;;;;0.40;0.40;;;10.60;99.90;;;10.11;100.00;95751.13;5029652;28;20202;-40
2023/10/31 00:53:02;;;;;;;0.38;0.22;;;10.60;99.90;;;10.05;100.00;95756.78;5018165;28;20036;-39
2023/10/31 00:55:27;;;;;;;0.63;0.30;;;10.60;99.90;;;10.00;100.00;95766.75;5036406;28;20099;-39
2023/10/31 00:57:53;;;;;;;1.33;0.45;;;10.40;99.90;;;9.91;100.00;95760.25;5036105;28;20029;-40
2023/10/31 01:00:19;;;;;;;0.52;0.40;;;10.40;99.90;;;9.88;100.00;95762.22;5018562;28;20388;-40
2023/10/31 01:02:45;;;;;;;0.77;0.25;;;10.30;99.90;;;9.84;100.00;95764.19;5035838;28;20039;-40
2023/10/31 01:05:11;;;;;;;2.28;0.20;;;10.30;99.90;;;9.79;100.00;95768.88;5039978;28;20505;-41
2023/10/31 01:07:36;;;;;;;1.15;0.30;;;10.30;99.90;;;9.74;100.00;95769.19;5026920;28;20057;-39
2023/10/31 01:10:03;;;;;;;0.50;0.20;;;10.20;99.90;;;9.64;100.00;95773.28;5030680;28;20065;-40
2023/10/31 01:12:30;;;;;;;1.95;0.22;;;10.20;99.90;;;9.49;100.00;95755.75;5039744;28;20029;-40
2023/10/31 01:14:56;;;;;;;1.83;0.40;;;10.00;99.90;;;9.49;100.00;95766.28;5042495;28;20031;-40
2023/10/31 01:17:22;;;;;;;0.47;0.30;;;10.00;99.90;;;9.43;100.00;95770.13;5036206;28;20458;-40
2023/10/31 01:19:48;;;;;;;1.52;0.30;;;9.90;99.90;;;9.32;100.00;95762.03;5028744;28;20099;-40
2023/10/31 01:22:14;;;;;;;2.05;0.40;;;9.80;99.90;;;9.21;100.00;95765.28;5036904;28;20729;-41
2023/10/31 01:24:39;;;;;;;2.83;0.30;;;9.70;99.90;;;9.12;100.00;95766.66;5027933;28;20107;-40
2023/10/31 01:27:05;;;;;;;2.50;0.50;;;9.60;99.90;;;9.04;100.00;95779.38;5026156;28;20122;-40
2023/10/31 01:29:31;;;;;;;0.25;0.20;;;9.50;99.90;;;8.86;100.00;95769.91;5034803;28;20029;-39
2023/10/31 01:31:57;;;;;;;0.40;0.40;;;9.40;99.90;;;8.85;100.00;95792.72;5034293;28;20043;-40
2023/10/31 01:34:23;;;;;;;2.85;0.40;;;9.40;99.90;;;8.78;100.00;95800.09;5028165;28;20373;-39
2023/10/31 01:36:48;;;;;;;0.95;0.30;;;9.30;99.90;;;8.73;100.00;95802.13;5030285;28;20477;-41
2023/10/31 01:39:14;;;;;;;1.23;0.40;;;9.20;99.90;;;8.58;100.00;95781.97;5020326;28;20034;-39
2023/10/31 01:41:43;;;;;;;0.30;0.30;;;9.20;99.90;;;8.68;100.00;95811.19;5039678;28;20036;-40
2023/10/31 01:44:10;;;;;;;0.47;0.28;;;9.20;99.90;;;8.64;100.00;95812.28;5041072;28;20032;-40
2023/10/31 01:46:36;;;;;;;0.30;0.30;;;9.20;99.90;;;8.65;100.00;95803.47;5041818;28;20040;-40
2023/10/31 01:49:02;;;;;;;1.20;0.40;;;9.10;99.90;;;8.65;100.00;95800.84;5039411;28;20378;-41
2023/10/31 01:51:28;;;;;;;1.85;0.40;;;9.20;99.90;;;8.64;100.00;95812.28;5029616;28;20037;-40
2023/10/31 01:53:55;;;;;;;0.73;0.50;;;9.20;99.90;;;8.67;100.00;95817.38;5029013;28;20477;-41
2023/10/31 01:56:22;;;;;;;1.45;0.40;;;9.20;99.90;;;8.70;100.00;95814.56;5018605;28;20071;-40
2023/10/31 01:58:49;;;;;;;2.22;0.40;;;9.20;99.90;;;8.75;100.00;95817.81;5024054;28;20028;-39
2023/10/31 02:01:15;;;;;;;1.65;0.47;;;9.30;99.90;;;8.74;100.00;95821.34;5020144;28;20576;-40
2023/10/31 02:03:41;;;;;;;1.40;0.30;;;9.30;99.90;;;8.76;100.00;95822.16;5039622;28;20041;-39
2023/10/31 02:06:07;;;;;;;0.98;0.30;;;9.30;99.90;;;8.81;100.00;95824.50;5039966;28;20575;-40
2023/10/31 02:08:33;;;;;;;1.05;0.40;;;9.30;99.90;;;8.81;100.00;95840.28;5040507;28;20155;-39
2023/10/31 02:10:59;;;;;;;1.55;0.35;;;9.30;99.90;;;8.77;100.00;95839.59;5036913;28;20059;-40
2023/10/31 02:13:25;;;;;;;0.65;0.40;;;9.30;99.90;;;8.74;100.00;95837.13;5007407;28;20069;-41
2023/10/31 02:15:50;;;;;;;0.93;0.40;;;9.30;99.90;;;8.72;100.00;95841.63;5028670;28;20025;-39
2023/10/31 02:18:16;;;;;;;0.47;0.30;;;9.20;99.90;;;8.69;100.00;95847.06;5032706;28;20036;-41
2023/10/31 02:20:43;;;;;;;2.03;0.60;;;9.20;99.90;;;8.59;100.00;95837.03;5036460;28;20035;-40
2023/10/31 02:23:09;;;;;;;0.85;0.40;;;9.20;99.90;;;8.65;100.00;95843.75;5014548;28;20098;-40
2023/10/31 02:25:34;;;;;;;1.50;0.50;;;9.20;99.90;;;8.62;100.00;95840.44;5039538;28;20025;-40
2023/10/31 02:28:00;;;;;;;0.57;0.45;;;9.20;99.90;;;8.61;100.00;95847.44;5041592;28;20075;-41
2023/10/31 02:30:27;;;;;;;0.38;0.35;;;9.20;99.90;;;8.59;100.00;95854.56;5039508;28;20021;-41
2023/10/31 02:32:53;;;;;;;0.30;0.30;;;9.20;99.90;;;8.63;100.00;95860.50;5042404;28;20099;-40
2023/10/31 02:35:19;;;;;;;1.73;0.30;;;9.20;99.90;;;8.63;100.00;95860.50;5038585;28;20491;-40
2023/10/31 02:37:49;;;;;;;0.80;0.35;;;9.20;99.90;;;8.65;100.00;95858.66;5038972;28;20445;-39
2023/10/31 02:40:15;;;;;;;0.70;0.30;;;9.20;99.90;;;8.63;100.00;95857.88;5042263;28;20029;-40
2023/10/31 02:42:40;;;;;;;0.22;0.22;;;9.20;99.90;;;8.71;100.00;95868.84;5037464;28;20120;-39
2023/10/31 02:45:07;;;;;;;0.30;0.20;;;9.20;99.90;;;8.72;100.00;95860.00;5041086;28;20036;-40
2023/10/31 02:47:33;;;;;;;0.77;0.40;;;9.30;99.90;;;8.73;100.00;95859.09;5043195;28;20025;-40
2023/10/31 02:49:59;;;;;;;0.95;0.40;;;9.30;99.90;;;8.73;100.00;95866.97;5041252;28;20021;-39
2023/10/31 02:52:24;;;;;;;1.95;0.38;;;9.30;99.90;;;8.70;100.00;95869.75;5039352;28;20068;-39
2023/10/31 02:54:50;;;;;;;0.63;0.40;;;9.20;99.90;;;8.69;100.00;95871.56;5042427;28;20403;-40
2023/10/31 02:57:17;;;;;;;2.38;0.32;;;9.20;99.90;;;8.67;100.00;95876.06;5032717;28;20079;-40
2023/10/31 02:59:43;;;;;;;0.20;0.20;;;9.20;99.90;;;8.66;100.00;95876.13;5026422;28;20055;-41
2023/10/31 03:02:09;;;;;;;0.50;0.30;;;9.20;99.90;;;8.59;100.00;95881.69;5032246;28;20133;-41
2023/10/31 03:04:34;;;;;;;1.13;0.40;;;9.20;99.90;;;8.60;100.00;95882.56;5041308;28;20469;-41
2023/10/31 03:07:00;;;;;;;0.50;0.30;;;9.20;99.90;;;8.56;100.00;95881.00;5032269;28;20083;-40
2023/10/31 03:09:26;;;;;;;1.45;0.28;;;9.10;99.90;;;8.53;100.00;95889.91;5032866;28;20616;-40
2023/10/31 03:11:52;;;;;;;1.30;0.40;;;9.10;99.90;;;8.50;100.00;95892.69;5036455;28;20370;-39
2023/10/31 03:14:18;;;;;;;0.85;0.32;;;9.00;99.90;;;8.47;100.00;95900.75;5034587;28;20508;-40
2023/10/31 03:16:44;;;;;;;0.35;0.30;;;9.00;99.90;;;8.47;100.00;95900.75;5022129;28;20037;-40
2023/10/31 03:19:09;;;;;;;1.00;0.30;;;9.00;99.90;;;8.47;100.00;95894.63;5033332;28;20119;-39
2023/10/31 03:21:35;;;;;;;0.70;0.40;;;9.00;99.90;;;8.46;100.00;95898.22;5037479;28;20110;-39
2023/10/31 03:24:01;;;;;;;0.60;0.30;;;9.00;99.90;;;8.41;100.00;95895.78;5040018;28;20488;-40
2023/10/31 03:26:27;;;;;;;0.20;0.20;;;9.00;99.90;;;8.46;100.00;95898.22;5037266;28;20582;-38
2023/10/31 03:28:56;;;;;;;1.38;0.30;;;9.00;99.90;;;8.41;100.00;95912.38;5040048;28;20040;-40
2023/10/31 03:31:23;;;;;;;0.32;0.32;;;8.90;99.90;;;8.40;100.00;95908.06;5031978;28;20127;-38
2023/10/31 03:33:51;;;;;;;0.52;0.32;;;8.90;99.90;;;8.39;100.00;95906.34;5030453;28;20037;-40
2023/10/31 03:36:17;;;;;;;0.30;0.30;;;8.90;99.90;;;8.32;100.00;95891.84;5034075;28;20033;-39
2023/10/31 03:38:43;;;;;;;1.00;0.40;;;8.90;99.90;;;8.39;100.00;95895.00;5024150;28;20036;-40
2023/10/31 03:41:08;;;;;;;0.90;0.50;;;9.00;99.90;;;8.48;100.00;95909.47;5032905;28;20029;-41
2023/10/31 03:43:34;;;;;;;0.98;0.50;;;9.00;99.90;;;8.47;100.00;95906.00;5038118;28;20056;-39
2023/10/31 03:46:00;;;;;;;1.55;0.40;;;9.00;99.90;;;8.45;100.00;95902.59;5041803;28;20492;-39
2023/10/31 03:48:26;;;;;;;0.43;0.43;;;9.00;99.90;;;8.51;100.00;95918.06;5010279;28;20025;-39
2023/10/31 03:50:52;;;;;;;0.50;0.30;;;9.00;99.90;;;8.52;100.00;95916.25;5030881;28;20497;-39
2023/10/31 03:53:18;;;;;;;1.30;0.40;;;9.00;99.90;;;8.47;100.00;95902.50;5034047;28;20104;-40
2023/10/31 03:55:44;;;;;;;0.88;0.60;;;9.10;99.90;;;8.47;100.00;95903.38;5036955;28;20063;-41
2023/10/31 03:58:09;;;;;;;0.88;0.40;;;9.00;99.90;;;8.45;100.00;95905.22;5038471;28;20362;-40
2023/10/31 04:00:35;;;;;;;0.50;0.50;;;9.00;99.90;;;8.43;100.00;95916.75;5042888;28;20067;-39
2023/10/31 04:03:01;;;;;;;0.90;0.50;;;8.90;99.90;;;8.26;100.00;95892.19;5034698;28;20272;-40
2023/10/31 04:05:27;;;;;;;0.90;0.50;;;8.90;99.90;;;8.35;100.00;95914.50;5039671;28;20037;-39
2023/10/31 04:07:52;;;;;;;1.55;0.45;;;8.90;99.90;;;8.31;100.00;95915.56;5021893;28;20177;-40
2023/10/31 04:10:19;;;;;;;1.95;0.32;;;8.90;99.90;;;8.28;100.00;95913.97;5039176;28;20029;-39
2023/10/31 04:12:45;;;;;;;0.95;0.40;;;8.80;99.90;;;8.32;100.00;95925.16;5038465;28;20029;-40
2023/10/31 04:15:11;;;;;;;0.57;0.30;;;8.90;99.90;;;8.37;100.00;95925.78;5033788;28;20160;-39
2023/10/31 04:17:38;;;;;;;0.93;0.45;;;8.90;99.90;;;8.31;100.00;95928.69;5039436;28;20211;-40
2023/10/31 04:20:04;;;;;;;0.30;0.30;;;8.90;99.90;;;8.41;100.00;95937.81;5031422;28;20049;-41
2023/10/31 04:22:30;;;;;;;0.70;0.50;;;9.00;99.90;;;8.44;100.00;95940.31;5029156;28;20041;-40
2023/10/31 04:24:56;;;;;;;0.43;0.40;;;9.00;99.90;;;8.41;100.00;95935.19;5034092;28;20424;-41
2023/10/31 04:27:22;;;;;;;0.50;0.50;;;8.90;99.90;;;8.36;100.00;95931.94;5039389;28;20685;-40
2023/10/31 04:29:48;;;;;;;0.85;0.47;;;8.90;99.90;;;8.35;100.00;95925.84;5033851;28;20224;-41
2023/10/31 04:32:14;;;;;;;1.73;0.50;;;8.90;99.90;;;8.27;100.00;95922.75;5039725;28;20174;-40
2023/10/31 04:34:39;;;;;;;5.60;0.43;;;8.90;99.90;;;8.27;100.00;95935.03;5041304;28;20025;-41
2023/10/31 04:37:05;;;;;;;1.73;0.50;;;8.80;99.90;;;8.27;100.00;95948.16;5041249;28;20556;-42
2023/10/31 04:39:31;;;;;;;0.80;0.50;;;8.80;99.90;;;8.21;100.00;95942.31;5038956;28;20430;-41
2023/10/31 04:41:57;;;;;;;2.25;0.60;;;8.80;99.90;;;8.09;100.00;95935.03;5039846;28;20041;-44
2023/10/31 04:44:23;;;;;;;0.88;0.40;;;8.80;99.90;;;8.22;100.00;95951.88;5038763;28;20520;-44
2023/10/31 04:46:48;;;;;;;0.57;0.50;;;8.70;99.90;;;8.13;100.00;95938.34;5039015;28;20250;-39
2023/10/31 04:49:15;;;;;;;2.42;0.40;;;8.80;99.90;;;8.12;100.00;95939.31;5042717;28;20041;-41
2023/10/31 04:51:41;;;;;;;0.93;0.50;;;8.70;99.90;;;8.11;100.00;95946.34;5040217;28;20021;-44
2023/10/31 04:54:07;;;;;;;1.02;0.40;;;8.70;99.90;;;8.11;100.00;95940.22;5043253;28;20126;-41
2023/10/31 04:56:33;;;;;;;1.60;0.50;;;8.70;99.90;;;8.06;100.00;95936.97;5035982;28;20135;-41
2023/10/31 04:58:59;;;;;;;0.77;0.40;;;8.70;99.90;;;8.13;100.00;95935.72;5040478;28;20066;-41
2023/10/31 05:01:25;;;;;;;2.58;0.45;;;8.60;99.90;;;8.10;100.00;95946.41;5041032;28;20470;-40
2023/10/31 05:03:50;;;;;;;0.70;0.40;;;8.70;99.90;;;8.03;100.00;95949.31;5021340;28;20072;-41
2023/10/31 05:06:20;;;;;;;0.68;0.50;;;8.60;99.90;;;8.06;100.00;95961.47;5041436;28;20436;-41
2023/10/31 05:08:46;;;;;;;0.40;0.40;;;8.60;99.90;;;7.99;100.00;95960.91;5038059;28;20392;-42
2023/10/31 05:11:12;;;;;;;0.20;0.20;;;8.60;99.90;;;7.94;100.00;95956.81;5036315;28;20071;-42
2023/10/31 05:13:41;;;;;;;2.67;0.40;;;8.60;99.90;;;7.98;100.00;95971.50;5042714;28;20028;-41
2023/10/31 05:16:07;;;;;;;0.38;0.38;;;8.50;99.90;;;7.99;100.00;95973.19;5033338;28;20151;-43
2023/10/31 05:18:33;;;;;;;0.95;0.55;;;8.50;99.90;;;7.97;100.00;95970.66;5038032;28;20036;-41
2023/10/31 05:20:58;;;;;;;0.85;0.38;;;8.50;99.90;;;7.93;100.00;95965.63;5040489;28;20033;-41
2023/10/31 05:23:24;;;;;;;2.22;0.55;;;8.50;99.90;;;7.92;100.00;95969.19;5040378;28;20115;-40
2023/10/31 05:25:50;;;;;;;1.85;0.50;;;8.50;99.90;;;7.89;100.00;95969.31;5036170;28;20056;-42
2023/10/31 05:28:16;;;;;;;2.22;0.50;;;8.50;99.90;;;7.81;100.00;95967.09;5042354;28;20386;-41
2023/10/31 05:30:41;;;;;;;0.75;0.50;;;8.40;99.90;;;7.87;100.00;95979.06;5042674;28;20507;-40
2023/10/31 05:33:07;;;;;;;4.18;0.52;;;8.40;99.90;;;7.78;100.00;95960.19;5040722;28;20055;-41
2023/10/31 05:35:33;;;;;;;0.63;0.45;;;8.40;99.90;;;7.73;100.00;95950.84;5041441;28;20043;-42
2023/10/31 05:37:59;;;;;;;0.40;0.40;;;8.40;99.90;;;7.80;100.00;95976.72;5034413;28;20036;-41
2023/10/31 05:40:27;;;;;;;1.40;0.57;;;8.40;99.90;;;7.78;100.00;95975.09;5040503;28;20040;-41
2023/10/31 05:42:52;;;;;;;0.57;0.20;;;8.30;99.90;;;7.73;100.00;95971.84;5040195;28;20529;-42
2023/10/31 05:45:18;;;;;;;1.00;0.45;;;8.30;99.90;;;7.73;100.00;95972.69;5031831;28;20032;-41
2023/10/31 05:47:44;;;;;;;0.43;0.35;;;8.30;99.90;;;7.71;100.00;95978.94;5036862;28;20266;-41
2023/10/31 05:50:10;;;;;;;0.57;0.32;;;8.30;99.90;;;7.59;100.00;95969.88;5041066;28;20419;-40
2023/10/31 05:52:36;;;;;;;0.55;0.32;;;8.20;99.90;;;7.59;100.00;95977.75;5038070;28;20032;-41
2023/10/31 05:55:02;;;;;;;0.65;0.30;;;8.20;99.90;;;7.63;100.00;95997.69;5037239;28;20291;-41
2023/10/31 05:57:28;;;;;;;1.33;0.40;;;8.20;99.90;;;7.54;100.00;96001.59;5041983;28;20033;-42
2023/10/31 05:59:53;;;;;;;0.40;0.40;;;8.20;99.90;;;7.58;100.00;96015.41;5040421;28;20129;-40
2023/10/31 06:02:19;;;;;;;0.75;0.30;;;8.20;99.90;;;7.56;100.00;96017.25;5033814;28;20040;-41
2023/10/31 06:04:45;;;;;;;0.55;0.30;;;8.10;99.90;;;7.51;100.00;96016.63;5040632;28;20025;-40
2023/10/31 06:07:11;;;;;;;0.85;0.40;;;8.10;99.90;;;7.52;100.00;96013.94;5035929;28;20524;-41
2023/10/31 06:09:37;;;;;;;1.63;0.35;;;8.10;99.90;;;7.49;100.00;96008.81;5038353;28;20090;-43
2023/10/31 06:12:03;;;;;;;1.73;0.35;;;8.10;99.90;;;7.55;100.00;96011.16;5034270;28;20040;-41
2023/10/31 06:14:29;;;;;;;2.58;0.43;;;8.10;99.90;;;7.60;100.00;96016.19;5035467;28;20043;-38
2023/10/31 06:16:56;;;;;;;0.60;0.30;;;8.10;99.90;;;7.47;100.00;95994.09;5034458;28;20037;-38
2023/10/31 06:19:22;;;;;;;0.38;0.30;;;8.20;99.90;;;7.63;100.00;96021.28;5037353;28;20033;-38
2023/10/31 06:21:48;;;;;;;1.95;0.60;;;8.20;99.90;;;7.65;100.00;96022.91;5038829;28;20025;-39
2023/10/31 06:24:14;;;;;;;2.35;0.50;;;8.30;99.90;;;7.70;100.00;96027.09;5033252;28;20032;-38
2023/10/31 06:26:39;;;;;;;3.67;0.45;;;8.30;99.90;;;7.70;100.00;96027.97;5036699;28;20567;-39
2023/10/31 06:29:05;;;;;;;1.17;0.80;;;8.30;99.90;;;7.69;100.00;96021.00;5043667;28;20046;-38
2023/10/31 06:31:31;;;;;;;3.03;0.50;;;8.30;99.90;;;7.78;100.00;96033.66;5034230;28;20473;-38
2023/10/31 06:33:57;;;;;;;1.73;0.63;;;8.40;99.90;;;7.86;100.00;96035.09;5040060;28;20464;-38
2023/10/31 06:36:22;;;;;;;1.60;0.57;;;8.40;99.90;;;7.88;100.00;96041.09;5041694;28;20032;-39
2023/10/31 06:38:48;;;;;;;0.43;0.20;;;8.40;99.90;;;7.93;100.00;96057.47;5040171;28;20059;-39
2023/10/31 06:41:14;;;;;;;2.58;0.50;;;8.50;99.90;;;7.98;100.00;96053.72;5032001;28;20032;-39
2023/10/31 06:43:40;;;;;;;1.88;0.50;;;8.60;99.90;;;8.02;100.00;96060.53;5039843;28;20028;-39
2023/10/31 06:46:06;;;;;;;0.60;0.52;;;8.60;99.90;;;7.99;100.00;96051.97;5038479;28;20036;-38
2023/10/31 06:48:32;;;;;;;5.38;0.57;;;8.60;99.90;;;8.14;100.00;96077.47;5036036;28;20533;-38
2023/10/31 06:50:58;;;;;;;1.00;0.50;;;8.70;99.90;;;8.20;100.00;96081.56;5034769;28;20211;-38
2023/10/31 06:53:23;;;;;;;0.45;0.40;;;8.70;99.90;;;8.19;100.00;96070.22;5032197;28;20040;-38
2023/10/31 06:55:49;;;;;;;0.90;0.47;;;8.80;99.90;;;8.27;100.00;96077.72;5040599;28;20121;-39
2023/10/31 06:58:15;;;;;;;0.68;0.50;;;8.90;99.90;;;8.35;100.00;96091.31;5033494;28;20037;-39
2023/10/31 07:00:40;;;;;;;0.47;0.40;;;8.90;99.90;;;8.39;100.00;96090.25;5037966;28;20655;-39
2023/10/31 07:03:09;;;;;;;0.57;0.40;;;9.00;99.90;;;8.48;100.00;96096.84;5032461;28;20036;-39
2023/10/31 07:05:37;;;;;;;0.85;0.60;;;9.00;99.90;;;8.54;100.00;96083.44;5036057;28;20040;-38
2023/10/31 07:08:05;;;;;;;0.77;0.60;;;9.10;99.90;;;8.63;100.00;96091.75;5039646;28;20052;-39
2023/10/31 07:10:30;;;;;;;0.38;0.38;;;9.20;99.90;;;8.70;100.00;96096.63;5033501;28;20054;-38
2023/10/31 07:12:58;;;;;;;1.00;0.50;;;9.30;99.90;;;8.74;100.00;96089.44;5032109;28;20068;-38
2023/10/31 07:15:24;;;;;;;0.75;0.30;;;9.30;99.90;;;8.89;100.00;96103.59;5035042;28;20033;-38
2023/10/31 07:17:50;;;;;;;1.40;0.50;;;9.40;99.90;;;8.96;100.00;96108.47;5030055;28;20127;-39
2023/10/31 07:20:16;;;;;;;2.28;0.50;;;9.50;99.90;;;9.01;100.00;96107.38;5035897;28;20083;-39
2023/10/31 07:22:42;;;;;;;0.65;0.45;;;9.60;99.90;;;9.11;100.00;96111.22;5035115;28;20057;-38
2023/10/31 07:25:08;;;;;;;1.25;0.50;;;9.60;99.90;;;9.14;100.00;96105.81;5041641;28;20071;-38
2023/10/31 07:27:34;;;;;;;0.75;0.50;;;9.70;99.90;;;9.23;100.00;96105.34;5039400;28;20064;-38
2023/10/31 07:30:00;;;;;;;0.50;0.30;;;9.80;99.90;;;9.31;100.00;96105.81;5035607;28;20041;-38
2023/10/31 07:32:25;;;;;;;0.60;0.45;;;9.90;99.90;;;9.38;100.00;96105.47;5030549;28;20495;-38
2023/10/31 07:34:52;;;;;;;0.70;0.50;;;9.90;99.90;;;9.42;100.00;96109.63;5040544;28;20033;-41
2023/10/31 07:37:18;;;;;;;1.52;0.70;;;10.00;99.90;;;9.50;100.00;96115.34;5038000;28;20037;-38
2023/10/31 07:39:44;;;;;;;0.60;0.50;;;10.10;99.90;;;9.56;100.00;96122.91;5040189;28;20039;-39
2023/10/31 07:42:09;;;;;;;3.45;0.57;;;10.10;99.90;;;9.58;100.00;96123.66;5037895;28;20036;-39
2023/10/31 07:44:35;;;;;;;3.97;0.60;;;10.10;99.90;;;9.68;100.00;96127.50;5043724;28;20037;-39
2023/10/31 07:47:01;;;;;;;1.75;0.28;;;10.20;99.90;;;9.69;100.00;96118.69;5039342;28;20119;-41
2023/10/31 07:49:27;;;;;;;1.23;0.50;;;10.30;99.90;;;9.79;100.00;96131.34;5038434;28;20116;-39
2023/10/31 07:51:52;;;;;;;0.40;0.30;;;10.40;99.90;;;9.85;100.00;96136.28;5036771;28;20025;-38
2023/10/31 07:54:19;;;;;;;1.13;0.30;;;10.40;99.90;;;9.86;100.00;96141.47;5031919;28;20035;-39
2023/10/31 07:56:44;;;;;;;0.98;0.68;;;10.40;99.90;;;9.86;100.00;96148.53;5032468;28;20039;-39
2023/10/31 07:59:11;;;;;;;1.98;0.60;;;10.40;99.90;;;9.85;100.00;96134.53;5029483;28;20024;-40
2023/10/31 08:01:36;;;;;;;0.75;0.70;;;10.50;99.90;;;10.01;100.00;96147.69;5027270;28;20120;-39
2023/10/31 08:04:02;;;;;;;1.00;0.60;;;10.50;99.90;;;10.08;100.00;96141.13;5027133;28;20029;-39
2023/10/31 08:06:28;;;;;;;1.08;0.40;;;10.60;99.90;;;10.18;100.00;96141.50;5019297;28;20041;-39
2023/10/31 08:08:53;;;;;;;2.03;0.50;;;10.70;99.90;;;10.25;100.00;96145.50;5033360;28;20063;-40
2023/10/31 08:11:19;;;;;;;1.70;0.55;;;10.80;99.90;;;10.32;100.00;96146.88;5029206;28;20065;-41
2023/10/31 08:13:46;;;;;;;1.42;0.60;;;10.80;99.90;;;10.41;100.00;96142.88;5031099;28;20029;-39
2023/10/31 08:16:20;;;;;;;0.80;0.40;;;10.90;99.90;;;10.51;100.00;96143.19;5033608;28;20037;-39
2023/10/31 08:18:46;;;;;;;1.02;0.47;;;11.00;99.90;;;10.63;100.00;96152.22;5034286;28;20192;-39
2023/10/31 08:21:12;;;;;;;0.60;0.35;;;11.10;99.90;;;10.67;100.00;96164.28;5023537;28;20037;-39
2023/10/31 08:23:38;;;;;;;1.73;0.45;;;11.20;99.90;;;10.72;100.00;96167.50;5036901;28;20489;-40
2023/10/31 08:26:04;;;;;;;1.90;0.40;;;11.30;99.90;;;10.79;100.00;96168.00;5029092;28;20048;-37
2023/10/31 08:28:30;;;;;;;2.42;0.63;;;11.30;99.90;;;10.78;100.00;96169.78;5031814;28;20405;-39
2023/10/31 08:30:57;;;;;;;3.70;0.45;;;11.30;99.90;;;10.76;100.00;96169.00;5021377;28;20025;-41
2023/10/31 08:33:23;;;;;;;1.85;0.50;;;11.30;99.90;;;10.65;100.00;96139.78;5030190;28;20061;-40
2023/10/31 08:35:49;;;;;;;2.38;0.32;;;11.30;99.90;;;10.88;100.00;96176.22;5026426;28;20668;-40
2023/10/31 08:38:15;;;;;;;2.40;0.40;;;11.40;99.90;;;10.94;100.00;96177.66;5035582;28;20409;-39
2023/10/31 08:40:41;;;;;;;2.95;0.57;;;11.40;99.90;;;10.93;100.00;96177.75;5037098;28;20037;-39
2023/10/31 08:43:07;;;;;;;1.45;0.35;;;11.40;99.90;;;10.95;100.00;96184.63;5016489;28;20024;-40
2023/10/31 08:45:33;;;;;;;1.85;0.70;;;11.40;99.90;;;10.88;100.00;96191.22;5036574;28;20550;-43
2023/10/31 08:48:00;;;;;;;3.20;0.55;;;11.40;99.90;;;10.89;100.00;96193.75;5034092;28;20051;-40
2023/10/31 08:50:25;;;;;;;1.35;0.47;;;11.40;99.90;;;10.94;100.00;96190.84;5033312;28;20029;-40
2023/10/31 08:52:51;;;;;;;2.17;0.70;;;11.40;99.90;;;10.90;100.00;96186.69;5039855;28;20029;-41
2023/10/31 08:55:17;;;;;;;2.42;0.57;;;11.40;99.90;;;10.83;100.00;96177.44;5031808;28;20122;-41
2023/10/31 08:57:43;;;;;;;0.82;0.47;;;11.40;99.90;;;10.97;100.00;96189.84;5035509;28;20033;-40
2023/10/31 09:00:09;;;;;;;1.35;0.40;;;11.40;99.90;;;10.98;100.00;96195.03;5037064;28;20114;-40
2023/10/31 09:02:35;;;;;;;2.53;0.50;;;11.50;99.90;;;11.00;100.00;96187.88;5031425;28;20029;-39
2023/10/31 09:05:00;;;;;;;1.55;0.40;;;11.50;99.90;;;11.01;100.00;96176.34;5030202;28;20052;-40
2023/10/31 09:07:26;;;;;;;1.35;0.50;;;11.50;99.90;;;11.11;100.00;96173.19;5035647;28;20037;-40
2023/10/31 09:09:52;;;;;;;2.45;0.63;;;11.60;99.90;;;11.07;100.00;96178.66;5034985;28;20479;-41
2023/10/31 09:12:18;;;;;;;2.38;0.57;;;11.60;99.90;;;11.10;100.00;96188.16;5021306;28;20025;-39
2023/10/31 09:14:44;;;;;;;2.97;0.47;;;11.60;99.90;;;11.22;100.00;96195.38;5038266;28;20034;-40
2023/10/31 09:17:09;;;;;;;1.63;0.57;;;11.70;99.90;;;11.30;100.00;96197.56;5026307;28;20037;-40
2023/10/31 09:19:35;;;;;;;2.72;0.45;;;11.80;99.90;;;11.37;100.00;96203.31;5032522;28;20028;-40
2023/10/31 09:22:01;;;;;;;1.48;0.60;;;11.90;99.90;;;11.45;100.00;96198.44;5029423;28;20132;-41
2023/10/31 09:24:27;;;;;;;4.10;0.77;;;11.90;99.90;;;11.50;100.00;96201.63;5016654;28;20033;-37
2023/10/31 09:26:52;;;;;;;3.45;0.80;;;12.10;99.90;;;11.63;100.00;96197.34;5032957;28;20132;-39
2023/10/31 09:29:18;;;;;;;4.13;0.80;;;12.20;99.90;;;11.81;100.00;96208.59;5027110;28;21225;-38
2023/10/31 09:31:44;;;;;;;1.17;0.70;;;12.30;99.90;;;11.85;100.00;96199.50;5034614;28;20120;-38
2023/10/31 09:34:10;;;;;;;2.75;1.10;;;12.30;99.90;;;11.79;100.00;96196.38;5026488;28;20040;-38
2023/10/31 09:36:35;;;;;;;0.85;0.60;;;12.20;99.90;;;11.69;100.00;96200.56;5040192;28;20396;-40
2023/10/31 09:39:01;;;;;;;1.50;0.60;;;12.10;99.90;;;11.48;100.00;96184.22;5038931;28;20056;-39
2023/10/31 09:41:27;;;;;;;1.13;0.40;;;12.00;99.90;;;11.46;100.00;96200.97;5022220;28;20029;-39
2023/10/31 09:43:54;;;;;;;1.75;0.55;;;11.90;99.90;;;11.24;100.00;96172.38;5034180;28;20033;-39
2023/10/31 09:46:21;;;;;;;2.40;0.73;;;11.80;99.90;;;11.17;100.00;96181.59;5023868;28;20550;-39
2023/10/31 09:48:49;;;;;;;1.33;0.60;;;11.80;99.90;;;11.26;100.00;96199.50;5029591;28;20201;-39
2023/10/31 09:51:14;;;;;;;1.70;0.63;;;11.70;99.90;;;11.34;100.00;96203.50;5036579;28;20037;-38
2023/10/31 09:53:44;;;;;;;1.52;0.60;;;11.80;99.90;;;11.53;100.00;96205.91;5025834;28;20472;-38
2023/10/31 09:56:10;;;;;;;1.52;0.60;;;12.00;99.90;;;11.61;100.00;96196.59;5035200;28;20443;-39
2023/10/31 09:58:36;;;;;;;5.82;0.93;;;12.20;99.90;;;11.71;100.00;96201.31;5031543;28;20032;-39
2023/10/31 10:01:02;;;;;;;2.53;0.77;;;12.20;99.90;;;11.71;100.00;96201.31;5036510;28;20037;-39
2023/10/31 10:03:29;;;;;;;3.65;0.85;;;12.20;99.90;;;11.72;100.00;96195.94;5038682;28;20440;-39
2023/10/31 10:05:55;;;;;;;3.00;0.75;;;12.30;99.90;;;11.90;100.00;96199.28;5042370;28;20093;-39
2023/10/31 10:08:21;;;;;;;3.72;0.63;;;12.40;99.90;;;11.99;100.00;96197.88;5018644;28;20040;-39
2023/10/31 10:10:47;;;;;;;5.82;0.80;;;12.50;99.90;;;12.12;100.00;96200.59;5046789;28;20401;-39
2023/10/31 10:13:13;;;;;;;1.90;0.70;;;12.60;99.90;;;12.19;100.00;96194.81;5039675;28;20339;-39
2023/10/31 10:15:49;;;;;;;3.83;0.75;;;12.70;99.90;;;12.30;100.00;96201.22;5039729;28;20032;-40